Time;durP1;ratioP1;P1;durP2;ratioP2;P2;SDS_P1;SDS_P2;PMS_P1;PMS_P2;Temp;Humidity;BMP_temperature;BMP_pressure;BME280_temperature;BME280_humidity;BME280_pressure;Samples;Min_cycle;Max_cycle;Signal;HPM_P1;HPM_P2
2021/08/07 00:00:05;;;;;;;3.78;1.40;;;;;;;16.66;72.82;92785.91;5031129;28;20440;-80
2021/08/07 00:02:32;;;;;;;3.55;1.83;;;;;;;16.62;72.67;92779.66;5031065;28;20053;-79
2021/08/07 00:04:58;;;;;;;2.20;1.35;;;;;;;16.59;73.26;92785.38;5030752;28;20049;-79
2021/08/07 00:07:27;;;;;;;3.15;1.73;;;;;;;16.51;73.72;92776.28;5030906;28;20055;-79
2021/08/07 00:09:54;;;;;;;3.25;1.70;;;;;;;16.36;74.10;92789.22;5030879;28;20049;-79
2021/08/07 00:12:21;;;;;;;3.25;1.65;;;;;;;16.35;73.75;92774.69;5030680;28;20050;-78
2021/08/07 00:14:49;;;;;;;3.20;1.70;;;;;;;16.40;73.81;92790.25;5030434;28;20045;-78
2021/08/07 00:17:16;;;;;;;5.38;1.85;;;;;;;16.37;73.75;92783.78;5030470;28;20103;-79
2021/08/07 00:19:43;;;;;;;2.97;1.58;;;;;;;16.46;73.24;92791.03;5030670;28;20049;-79
2021/08/07 00:22:09;;;;;;;4.40;1.85;;;;;;;16.48;72.87;92794.94;5029637;28;20049;-79
2021/08/07 00:24:36;;;;;;;3.80;1.70;;;;;;;16.46;73.11;92793.63;5030575;28;20050;-79
2021/08/07 00:27:03;;;;;;;3.03;1.65;;;;;;;16.37;73.54;92801.13;5030257;28;20092;-79
2021/08/07 00:29:35;;;;;;;2.92;1.80;;;;;;;16.30;73.86;92801.41;5030189;28;20144;-79
2021/08/07 00:32:03;;;;;;;5.60;2.10;;;;;;;16.14;74.08;92788.38;5030209;28;20080;-79
2021/08/07 00:34:30;;;;;;;3.53;1.70;;;;;;;16.23;74.31;92801.63;5030014;28;20053;-79
2021/08/07 00:36:57;;;;;;;2.90;1.52;;;;;;;16.15;74.75;92808.06;5030389;28;20083;-79
2021/08/07 00:39:24;;;;;;;2.90;1.63;;;;;;;16.07;75.16;92806.00;5030088;28;20050;-79
2021/08/07 00:41:51;;;;;;;5.10;2.28;;;;;;;16.11;75.32;92803.66;5030461;28;20053;-80
2021/08/07 00:44:18;;;;;;;4.47;2.35;;;;;;;16.09;75.22;92797.94;5030075;28;20095;-80
2021/08/07 00:46:45;;;;;;;4.35;2.00;;;;;;;16.08;75.43;92802.34;5030274;28;20049;-80
2021/08/07 00:49:13;;;;;;;5.70;2.17;;;;;;;16.10;75.17;92802.09;5030402;28;20389;-81
2021/08/07 00:51:40;;;;;;;4.50;2.80;;;;;;;16.10;74.80;92802.09;5030216;28;20057;-81
2021/08/07 00:54:07;;;;;;;4.00;2.13;;;;;;;16.02;75.28;92805.97;5029815;28;20049;-81
2021/08/07 00:56:34;;;;;;;4.35;2.40;;;;;;;15.93;75.53;92808.25;5029841;28;20508;-81
2021/08/07 00:59:00;;;;;;;3.60;1.98;;;;;;;15.86;75.62;92803.28;5030144;28;20386;-81
2021/08/07 01:01:34;;;;;;;3.55;2.35;;;;;;;15.84;75.76;92802.72;5029640;28;20049;-81
2021/08/07 01:04:03;;;;;;;4.50;2.22;;;;;;;15.71;76.21;92803.97;5029697;28;20562;-81
2021/08/07 01:06:37;;;;;;;3.90;1.90;;;;;;;15.64;76.51;92803.41;5029711;28;20045;-81
2021/08/07 01:09:09;;;;;;;5.47;2.28;;;;;;;15.44;76.97;92793.72;5029816;28;20056;-81
2021/08/07 01:11:44;;;;;;;4.88;2.10;;;;;;;15.42;77.53;92804.31;5029917;28;20401;-81
2021/08/07 01:14:12;;;;;;;3.58;2.15;;;;;;;15.33;78.23;92798.06;5030057;28;20782;-81
2021/08/07 01:16:43;;;;;;;3.35;1.70;;;;;;;15.12;78.70;92773.84;5029901;28;20048;-81
2021/08/07 01:19:14;;;;;;;5.20;2.22;;;;;;;15.34;78.58;92800.41;5029587;28;20050;-81
2021/08/07 01:21:49;;;;;;;5.90;2.03;;;;;;;15.32;78.70;92792.09;5029887;28;20192;-81
2021/08/07 01:24:22;;;;;;;4.22;1.88;;;;;;;15.52;78.33;92815.78;5029422;28;20053;-82
2021/08/07 01:27:00;;;;;;;5.80;1.63;;;;;;;15.58;78.55;92804.41;5029373;28;20049;-80
2021/08/07 01:29:29;;;;;;;4.55;1.85;;;;;;;15.66;77.77;92805.75;5029663;28;20475;-79
2021/08/07 01:31:56;;;;;;;5.50;2.05;;;;;;;15.58;77.61;92787.09;5029732;28;20710;-79
2021/08/07 01:34:23;;;;;;;4.60;1.95;;;;;;;15.65;78.26;92796.44;5029401;28;20085;-79
2021/08/07 01:36:50;;;;;;;3.10;1.63;;;;;;;15.74;78.19;92797.53;5029254;28;20048;-79
2021/08/07 01:39:17;;;;;;;4.38;2.00;;;;;;;15.75;77.60;92801.66;5029436;28;20061;-79
2021/08/07 01:41:44;;;;;;;3.67;2.05;;;;;;;15.75;77.38;92801.66;5029388;28;20077;-79
2021/08/07 01:44:11;;;;;;;3.47;2.00;;;;;;;15.75;76.58;92812.78;5029350;28;20045;-79
2021/08/07 01:46:48;;;;;;;5.53;1.88;;;;;;;15.75;76.24;92809.44;5029400;28;20401;-80
2021/08/07 01:49:17;;;;;;;4.20;1.73;;;;;;;15.61;75.62;92804.69;5029389;28;20136;-80
2021/08/07 01:51:47;;;;;;;4.43;2.00;;;;;;;15.63;75.98;92817.38;5029424;28;20052;-80
2021/08/07 01:54:20;;;;;;;3.92;1.98;;;;;;;15.51;76.73;92812.41;5029316;28;20455;-79
2021/08/07 01:56:47;;;;;;;4.38;2.25;;;;;;;15.46;76.75;92799.44;5029216;28;20049;-79
2021/08/07 01:59:17;;;;;;;3.10;2.00;;;;;;;14.97;79.47;92806.34;5029000;28;20511;-79
2021/08/07 02:01:48;;;;;;;4.20;2.00;;;;;;;14.82;80.57;92805.19;5028913;28;20054;-79
2021/08/07 02:04:16;;;;;;;4.65;2.35;;;;;;;14.90;79.96;92800.59;5029321;28;20056;-79
2021/08/07 02:06:44;;;;;;;5.05;2.00;;;;;;;15.03;79.93;92805.34;5029264;28;20050;-78
2021/08/07 02:09:12;;;;;;;5.20;2.33;;;;;;;14.95;80.36;92816.16;5029196;28;20091;-78
2021/08/07 02:11:41;;;;;;;5.13;2.17;;;;;;;14.92;79.62;92809.69;5029238;28;20050;-79
2021/08/07 02:14:09;;;;;;;4.88;2.05;;;;;;;14.90;79.29;92795.44;5028711;28;20140;-79
2021/08/07 02:16:38;;;;;;;4.82;2.10;;;;;;;15.08;79.37;92820.91;5029161;28;20041;-79
2021/08/07 02:19:08;;;;;;;5.00;2.75;;;;;;;15.02;79.19;92818.53;5028818;28;20054;-79
2021/08/07 02:21:36;;;;;;;6.55;2.95;;;;;;;15.03;79.63;92822.66;5028998;28;20459;-79
2021/08/07 02:24:04;;;;;;;3.85;1.90;;;;;;;15.04;78.63;92812.09;5028762;28;20505;-79
2021/08/07 02:26:31;;;;;;;3.13;2.00;;;;;;;14.99;79.02;92814.63;5029192;28;20045;-79
2021/08/07 02:28:58;;;;;;;5.63;2.47;;;;;;;15.02;78.92;92814.16;5029015;28;20409;-79
2021/08/07 02:31:25;;;;;;;2.78;1.75;;;;;;;14.90;79.71;92816.13;5028751;28;20701;-80
2021/08/07 02:33:55;;;;;;;4.40;2.10;;;;;;;14.70;80.71;92820.84;5029248;28;20108;-80
2021/08/07 02:36:24;;;;;;;3.00;1.80;;;;;;;14.78;80.27;92826.59;5028950;28;20050;-81
2021/08/07 02:38:51;;;;;;;4.57;1.98;;;;;;;14.52;81.11;92803.84;5028988;28;20061;-80
2021/08/07 02:41:20;;;;;;;3.08;1.75;;;;;;;14.68;81.26;92824.69;5028572;28;20064;-80
2021/08/07 02:43:47;;;;;;;5.50;2.10;;;;;;;14.60;80.99;92809.59;5028500;28;20421;-79
2021/08/07 02:46:14;;;;;;;7.28;1.88;;;;;;;14.70;80.52;92828.59;5031903;28;20052;-79
2021/08/07 02:48:41;;;;;;;4.97;1.98;;;;;;;14.52;81.80;92831.50;5032484;28;20072;-81
2021/08/07 02:51:08;;;;;;;6.45;2.30;;;;;;;14.26;81.31;92789.91;5032211;28;20050;-81
2021/08/07 02:53:36;;;;;;;4.88;2.58;;;;;;;14.49;80.97;92816.50;5032052;28;20088;-81
2021/08/07 02:56:03;;;;;;;3.35;2.42;;;;;;;14.55;81.40;92841.34;5032387;28;20045;-80
2021/08/07 02:58:31;;;;;;;6.30;2.28;;;;;;;14.45;81.96;92841.25;5031923;28;20058;-78
2021/08/07 03:00:58;;;;;;;4.55;1.85;;;;;;;14.43;82.16;92836.31;5032264;28;20179;-79
2021/08/07 03:03:25;;;;;;;6.03;2.30;;;;;;;14.31;82.40;92841.63;5032163;28;20049;-80
2021/08/07 03:05:52;;;;;;;6.97;2.25;;;;;;;14.30;82.85;92843.44;5032234;28;20061;-79
2021/08/07 03:08:19;;;;;;;4.45;1.95;;;;;;;14.40;81.76;92845.34;5031847;28;20417;-79
2021/08/07 03:10:47;;;;;;;5.90;2.35;;;;;;;14.42;81.70;92834.75;5031681;28;20050;-79
2021/08/07 03:13:14;;;;;;;9.73;2.38;;;;;;;14.50;81.67;92843.88;5031892;28;20041;-79
2021/08/07 03:15:42;;;;;;;9.52;1.95;;;;;;;14.59;81.17;92842.44;5031631;28;20060;-79
2021/08/07 03:18:08;;;;;;;4.40;2.50;;;;;;;14.57;80.81;92834.94;5031504;28;20136;-79
2021/08/07 03:20:35;;;;;;;6.35;1.95;;;;;;;14.62;80.31;92839.34;5031864;28;20046;-79
2021/08/07 03:23:05;;;;;;;4.22;2.20;;;;;;;14.61;80.17;92839.59;5031860;28;20057;-79
2021/08/07 03:25:32;;;;;;;7.32;2.88;;;;;;;14.61;80.07;92842.97;5031585;28;20050;-79
2021/08/07 03:28:01;;;;;;;7.13;2.20;;;;;;;14.53;80.92;92848.56;5031743;28;20050;-79
2021/08/07 03:30:29;;;;;;;7.00;1.90;;;;;;;14.41;81.60;92849.47;5027328;28;20057;-79
2021/08/07 03:32:56;;;;;;;4.78;2.00;;;;;;;14.42;81.32;92852.84;5030077;28;20057;-79
2021/08/07 03:35:23;;;;;;;4.22;2.13;;;;;;;14.49;80.83;92860.44;5031549;28;20050;-79
2021/08/07 03:37:50;;;;;;;3.55;2.05;;;;;;;13.88;80.60;92777.63;5031023;28;20061;-79
2021/08/07 03:40:17;;;;;;;5.13;2.47;;;;;;;14.49;81.36;92878.50;5031270;28;20487;-81
2021/08/07 03:42:44;;;;;;;5.88;2.22;;;;;;;14.33;82.23;92880.91;5031107;28;20054;-80
2021/08/07 03:45:13;;;;;;;5.95;2.15;;;;;;;14.29;81.64;92848.81;5031330;28;20053;-80
2021/08/07 03:47:48;;;;;;;6.40;2.22;;;;;;;14.50;81.15;92867.16;5031555;28;20052;-81
2021/08/07 03:50:15;;;;;;;7.10;2.55;;;;;;;14.39;82.26;92874.00;5031459;28;20049;-81
2021/08/07 03:52:42;;;;;;;3.78;2.28;;;;;;;14.41;81.74;92877.13;5031024;28;20519;-81
2021/08/07 03:55:09;;;;;;;10.38;2.42;;;;;;;14.40;81.74;92873.00;5030745;28;20050;-82
2021/08/07 03:57:54;;;;;;;7.80;3.83;;;;;;;14.34;82.33;92868.78;5030799;28;20053;-81
2021/08/07 04:00:24;;;;;;;6.88;2.53;;;;;;;14.39;82.80;92876.56;5031146;28;20077;-82
2021/08/07 04:02:51;;;;;;;6.32;2.47;;;;;;;14.47;82.02;92871.00;5031414;28;20045;-82
2021/08/07 04:05:18;;;;;;;11.25;2.30;;;;;;;14.48;82.17;92872.56;5031821;28;20385;-80
2021/08/07 04:07:45;;;;;;;4.88;2.90;;;;;;;14.54;81.72;92881.16;5031697;28;20056;-80
2021/08/07 04:10:12;;;;;;;8.50;2.78;;;;;;;14.48;81.16;92862.22;5031120;28;20086;-81
2021/08/07 04:12:40;;;;;;;8.77;2.05;;;;;;;14.57;81.22;92885.81;5031416;28;20060;-80
2021/08/07 04:15:08;;;;;;;4.15;1.95;;;;;;;14.56;80.99;92894.59;5040859;28;20055;-81
2021/08/07 04:17:38;;;;;;;4.97;3.03;;;;;;;14.57;81.54;92894.38;5040715;28;20087;-81
2021/08/07 04:20:06;;;;;;;14.57;2.95;;;;;;;14.58;82.42;92892.56;5041238;28;20052;-81
2021/08/07 04:22:32;;;;;;;13.68;2.70;;;;;;;14.57;82.69;92891.78;5039499;28;20057;-81
2021/08/07 04:24:59;;;;;;;5.93;2.55;;;;;;;14.66;82.53;92894.72;5033173;28;20114;-81
2021/08/07 04:27:26;;;;;;;4.15;2.33;;;;;;;14.63;82.38;92897.78;5046261;28;20056;-81
2021/08/07 04:29:53;;;;;;;6.22;2.50;;;;;;;14.74;82.12;92909.03;5050095;28;20049;-81
2021/08/07 04:32:21;;;;;;;7.22;3.13;;;;;;;14.75;82.60;92895.09;5039939;28;20045;-82
2021/08/07 04:34:49;;;;;;;5.28;3.25;;;;;;;14.85;82.29;92897.00;5041618;28;20123;-81
2021/08/07 04:37:16;;;;;;;7.82;3.35;;;;;;;14.89;82.13;92894.69;5050239;28;20076;-81
2021/08/07 04:39:43;;;;;;;9.93;2.72;;;;;;;14.92;82.74;92905.38;5050203;28;20060;-81
2021/08/07 04:42:10;;;;;;;10.38;2.90;;;;;;;14.96;83.62;92895.31;5047960;28;20515;-81
2021/08/07 04:44:37;;;;;;;6.03;2.38;;;;;;;15.03;82.31;92884.75;5041681;28;20045;-81
2021/08/07 04:47:04;;;;;;;7.68;3.40;;;;;;;15.18;81.96;92892.66;5049996;28;20408;-81
2021/08/07 04:49:31;;;;;;;4.38;2.63;;;;;;;15.17;81.56;92891.09;5050396;28;20053;-81
2021/08/07 04:52:00;;;;;;;6.78;2.67;;;;;;;15.33;81.38;92917.09;5049877;28;21534;-81
2021/08/07 04:54:27;;;;;;;6.53;3.20;;;;;;;15.44;80.69;92912.78;5049584;28;20095;-81
2021/08/07 04:56:54;;;;;;;7.45;2.65;;;;;;;15.42;80.68;92915.59;5050407;28;20049;-81
2021/08/07 04:59:21;;;;;;;3.80;2.70;;;;;;;15.49;80.71;92923.16;5046765;28;20044;-81
2021/08/07 05:01:48;;;;;;;7.65;3.05;;;;;;;15.47;80.77;92925.25;5029721;28;20064;-81
2021/08/07 05:04:14;;;;;;;7.28;3.10;;;;;;;15.52;80.62;92924.50;5029835;28;20651;-81
2021/08/07 05:06:44;;;;;;;9.98;3.42;;;;;;;15.61;80.10;92928.97;5029615;28;20099;-82
2021/08/07 05:09:12;;;;;;;6.82;4.15;;;;;;;15.61;81.29;92925.59;5029755;28;20103;-82
2021/08/07 05:11:39;;;;;;;6.88;3.13;;;;;;;15.68;78.97;92921.00;5029709;28;20045;-82
2021/08/07 05:14:06;;;;;;;7.80;3.85;;;;;;;15.86;81.08;92919.03;5029628;28;20049;-82
2021/08/07 05:16:33;;;;;;;8.13;3.30;;;;;;;15.76;79.88;92917.16;5029593;28;20049;-82
2021/08/07 05:19:00;;;;;;;4.68;3.20;;;;;;;16.00;77.85;92934.94;5029476;28;20511;-82
2021/08/07 05:21:26;;;;;;;4.40;2.80;;;;;;;16.22;76.91;92937.41;5043383;28;20052;-82
2021/08/07 05:23:53;;;;;;;8.23;2.80;;;;;;;16.29;77.42;92940.56;5049505;28;20045;-82
2021/08/07 05:26:21;;;;;;;6.65;3.03;;;;;;;16.44;76.22;92939.09;5049497;28;20072;-82
2021/08/07 05:28:49;;;;;;;6.38;2.40;;;;;;;16.51;75.43;92938.81;5049172;28;20053;-81
2021/08/07 05:31:16;;;;;;;7.07;2.80;;;;;;;16.58;75.61;92936.81;5049188;28;20049;-81
2021/08/07 05:33:43;;;;;;;6.47;3.00;;;;;;;16.79;75.45;92939.44;5044736;28;20397;-81
2021/08/07 05:36:10;;;;;;;4.90;2.85;;;;;;;16.93;75.27;92942.34;5029328;28;20057;-81
2021/08/07 05:38:38;;;;;;;5.32;2.83;;;;;;;17.05;74.83;92947.34;5029637;28;20500;-81
2021/08/07 05:41:05;;;;;;;5.93;2.20;;;;;;;16.96;73.90;92915.91;5029324;28;20042;-82
2021/08/07 05:43:33;;;;;;;4.30;2.13;;;;;;;17.29;73.25;92949.44;5028963;28;20057;-82
2021/08/07 05:46:00;;;;;;;3.78;1.83;;;;;;;17.46;72.89;92954.41;5029653;28;20115;-82
2021/08/07 05:48:28;;;;;;;3.72;2.38;;;;;;;17.58;72.61;92954.16;5029179;28;20107;-82
2021/08/07 05:50:55;;;;;;;4.90;2.67;;;;;;;17.67;70.41;92942.22;5029297;28;20069;-82
2021/08/07 05:53:21;;;;;;;3.60;2.03;;;;;;;17.94;69.99;92959.34;5028939;28;20053;-83
2021/08/07 05:55:48;;;;;;;8.80;2.50;;;;;;;18.07;69.46;92955.47;5029317;28;20050;-81
2021/08/07 05:58:15;;;;;;;6.32;2.78;;;;;;;18.34;69.51;92961.41;5029077;28;20050;-81
2021/08/07 06:00:43;;;;;;;10.00;4.30;;;;;;;18.42;67.83;92946.03;5029043;28;20542;-83
2021/08/07 06:03:10;;;;;;;18.45;8.48;;;;;;;18.81;66.07;92956.81;5028721;28;20508;-83
2021/08/07 06:05:37;;;;;;;14.98;7.88;;;;;;;19.04;64.69;92963.25;5028984;28;20041;-83
2021/08/07 06:08:06;;;;;;;12.68;4.43;;;;;;;19.25;62.60;92968.31;5029002;28;21525;-83
2021/08/07 06:10:36;;;;;;;8.10;3.92;;;;;;;19.41;62.27;92957.81;5029413;28;20073;-83
2021/08/07 06:13:03;;;;;;;12.88;6.05;;;;;;;19.54;61.01;92956.44;5029011;28;20049;-83
2021/08/07 06:15:30;;;;;;;15.23;5.22;;;;;;;19.94;61.40;92967.59;5029021;28;20455;-83
2021/08/07 06:18:01;;;;;;;11.95;6.18;;;;;;;20.23;59.22;92966.81;5028857;28;20140;-84
2021/08/07 06:20:28;;;;;;;10.18;4.68;;;;;;;20.50;58.68;92964.75;5036880;28;20048;-83
2021/08/07 06:22:55;;;;;;;8.90;4.60;;;;;;;20.72;57.32;92945.19;5052538;28;20052;-83
2021/08/07 06:25:23;;;;;;;6.95;3.70;;;;;;;21.03;56.85;92968.34;5029531;28;20412;-83
2021/08/07 06:27:53;;;;;;;7.40;2.60;;;;;;;21.06;56.38;92973.75;5029638;28;20056;-83
2021/08/07 06:30:21;;;;;;;5.47;2.63;;;;;;;21.06;56.62;92962.56;5032487;28;20052;-83
2021/08/07 06:32:48;;;;;;;5.60;2.83;;;;;;;21.43;55.62;92963.59;5032268;28;20056;-82
2021/08/07 06:35:16;;;;;;;6.07;2.90;;;;;;;21.88;54.74;92959.81;5032535;28;20056;-82
2021/08/07 06:37:43;;;;;;;7.35;3.10;;;;;;;22.29;52.71;92968.81;5043816;28;20060;-83
2021/08/07 06:40:14;;;;;;;10.35;3.00;;;;;;;22.68;52.77;92972.09;5052014;28;20049;-82
2021/08/07 06:42:41;;;;;;;6.50;2.70;;;;;;;23.01;50.77;92968.56;5041405;28;20163;-83
2021/08/07 06:45:10;;;;;;;6.47;3.10;;;;;;;23.23;50.16;92966.00;5039410;28;20053;-83
2021/08/07 06:47:37;;;;;;;4.68;1.85;;;;;;;23.21;49.18;92959.50;5031808;28;20045;-82
2021/08/07 06:50:05;;;;;;;3.78;1.90;;;;;;;22.92;50.66;92977.09;5043964;28;20049;-82
2021/08/07 06:52:35;;;;;;;4.78;2.22;;;;;;;22.69;50.81;92965.78;5042871;28;20045;-82
2021/08/07 06:55:02;;;;;;;7.30;2.70;;;;;;;23.23;50.00;92971.25;5045855;28;20076;-82
2021/08/07 06:57:29;;;;;;;5.72;2.70;;;;;;;22.41;50.80;92966.50;5045699;28;20052;-82
2021/08/07 06:59:55;;;;;;;5.63;2.83;;;;;;;22.60;50.69;92973.53;5033742;28;20049;-82
2021/08/07 07:02:22;;;;;;;8.23;3.40;;;;;;;22.99;50.07;92960.25;5032148;28;20057;-83
2021/08/07 07:04:50;;;;;;;7.13;3.00;;;;;;;23.31;50.57;92967.19;5031836;28;20495;-83
2021/08/07 07:07:17;;;;;;;7.85;2.55;;;;;;;23.76;49.13;92952.53;5032214;28;20081;-84
2021/08/07 07:09:45;;;;;;;5.80;2.92;;;;;;;23.49;48.76;92978.59;5031635;28;20045;-83
2021/08/07 07:12:13;;;;;;;7.13;3.45;;;;;;;23.88;48.50;92967.72;5040208;28;20052;-83
2021/08/07 07:14:40;;;;;;;6.13;2.40;;;;;;;23.89;47.76;92975.31;5048582;28;20044;-82
2021/08/07 07:17:07;;;;;;;6.63;2.75;;;;;;;23.54;49.02;92975.06;5051665;28;20060;-83
2021/08/07 07:19:46;;;;;;;5.88;2.90;;;;;;;22.99;49.90;92974.09;5051583;28;20489;-83
2021/08/07 07:22:13;;;;;;;6.38;2.50;;;;;;;23.86;48.50;92962.00;5031626;28;20401;-83
2021/08/07 07:24:40;;;;;;;4.30;1.83;;;;;;;23.59;47.66;92964.47;5031369;28;20099;-83
2021/08/07 07:27:08;;;;;;;5.88;2.08;;;;;;;23.94;48.23;92960.53;5031437;28;20068;-83
2021/08/07 07:29:35;;;;;;;7.20;1.92;;;;;;;24.48;46.37;92965.75;5031367;28;20512;-82
2021/08/07 07:32:02;;;;;;;6.38;2.17;;;;;;;24.09;47.25;92959.41;5031254;28;20045;-82
2021/08/07 07:34:29;;;;;;;6.07;2.25;;;;;;;24.72;45.07;92966.47;5042500;28;20045;-84
2021/08/07 07:36:55;;;;;;;5.90;2.10;;;;;;;25.29;44.04;92963.03;5050701;28;20061;-83
2021/08/07 07:39:22;;;;;;;4.72;2.10;;;;;;;25.56;42.92;92949.91;5051488;28;20045;-83
2021/08/07 07:41:49;;;;;;;4.28;1.73;;;;;;;25.80;42.64;92962.59;5051338;28;20072;-83
2021/08/07 07:44:17;;;;;;;3.47;1.50;;;;;;;25.61;41.04;92971.56;5051075;28;20045;-83
2021/08/07 07:46:44;;;;;;;4.75;2.45;;;;;;;25.71;42.46;92962.59;5051158;28;20049;-84
2021/08/07 07:49:11;;;;;;;4.80;1.60;;;;;;;25.75;41.80;92958.25;5051294;28;20053;-81
2021/08/07 07:51:38;;;;;;;2.50;1.30;;;;;;;25.36;42.84;92957.31;5050887;28;20041;-84
2021/08/07 07:54:05;;;;;;;3.47;1.40;;;;;;;25.64;43.18;92966.78;5050820;28;20431;-83
2021/08/07 07:56:32;;;;;;;3.22;1.10;;;;;;;25.64;38.85;92953.63;5050871;28;20385;-84
2021/08/07 07:58:58;;;;;;;2.28;1.08;;;;;;;26.14;37.49;92963.59;5050738;28;20057;-83
2021/08/07 08:01:27;;;;;;;1.40;0.60;;;;;;;25.49;36.72;92964.28;5051005;28;20053;-83
2021/08/07 08:03:54;;;;;;;1.98;0.80;;;;;;;25.20;38.28;92941.22;5051013;28;20419;-80
2021/08/07 08:06:20;;;;;;;1.85;0.70;;;;;;;25.28;36.83;92974.66;5051038;28;20415;-81
2021/08/07 08:08:47;;;;;;;1.70;1.02;;;;;;;25.11;37.67;92971.97;5050613;28;20056;-80
2021/08/07 08:11:14;;;;;;;1.60;0.80;;;;;;;24.46;37.51;92938.25;5050912;28;20431;-79
2021/08/07 08:13:41;;;;;;;1.95;0.82;;;;;;;25.47;36.37;92976.94;5051103;28;20439;-80
2021/08/07 08:16:08;;;;;;;3.28;0.70;;;;;;;25.57;36.42;92975.13;5050609;28;20045;-80
2021/08/07 08:18:36;;;;;;;5.10;0.85;;;;;;;26.31;38.13;92980.47;5050844;28;20071;-80
2021/08/07 08:21:06;;;;;;;1.58;0.80;;;;;;;25.58;36.27;92955.63;5039744;28;20048;-81
2021/08/07 08:23:32;;;;;;;4.38;1.33;;;;;;;25.69;36.91;92974.53;5030286;28;20511;-81
2021/08/07 08:26:00;;;;;;;3.05;1.00;;;;;;;25.69;36.76;92970.00;5030551;28;20057;-80
2021/08/07 08:28:26;;;;;;;2.30;1.13;;;;;;;24.89;36.40;92977.03;5030203;28;20049;-80
2021/08/07 08:30:53;;;;;;;5.82;2.67;;;;;;;25.09;37.35;92972.31;5030580;28;20452;-80
2021/08/07 08:33:20;;;;;;;1.75;1.02;;;;;;;24.80;37.67;92969.09;5031900;28;20443;-80
2021/08/07 08:35:48;;;;;;;1.60;0.70;;;;;;;24.95;37.26;92985.56;5049864;28;20053;-80
2021/08/07 08:38:15;;;;;;;2.88;1.00;;;;;;;24.33;38.75;92969.56;5050255;28;20048;-80
2021/08/07 08:40:42;;;;;;;1.60;0.90;;;;;;;24.57;38.38;92980.78;5049898;28;20060;-80
2021/08/07 08:43:09;;;;;;;1.83;0.80;;;;;;;24.79;38.32;92983.31;5049054;28;20375;-80
2021/08/07 08:45:36;;;;;;;1.38;0.60;;;;;;;25.11;37.34;92985.91;5049928;28;20056;-80
2021/08/07 08:48:04;;;;;;;2.15;0.70;;;;;;;25.58;37.00;92990.59;5050205;28;20049;-81
2021/08/07 08:50:32;;;;;;;1.90;0.70;;;;;;;25.71;36.02;92988.91;5049711;28;20056;-81
2021/08/07 08:53:00;;;;;;;1.65;0.70;;;;;;;24.88;36.33;92999.13;5049725;28;20875;-81
2021/08/07 08:55:27;;;;;;;2.10;0.70;;;;;;;25.10;37.08;93000.13;5050122;28;20126;-81
2021/08/07 08:57:54;;;;;;;1.17;0.60;;;;;;;25.22;37.30;92986.38;5050013;28;20091;-81
2021/08/07 09:00:21;;;;;;;1.77;0.90;;;;;;;25.04;37.75;92993.47;5050004;28;20057;-80
2021/08/07 09:02:48;;;;;;;1.25;0.63;;;;;;;25.46;36.71;92996.44;5049289;28;20055;-79
2021/08/07 09:05:15;;;;;;;1.33;0.73;;;;;;;26.03;35.90;93001.88;5049851;28;20053;-81
2021/08/07 09:07:44;;;;;;;1.58;0.70;;;;;;;26.06;36.93;93005.75;5049505;28;20086;-81
2021/08/07 09:10:13;;;;;;;2.97;0.82;;;;;;;25.88;35.59;93000.50;5049535;28;20048;-81
2021/08/07 09:12:43;;;;;;;1.38;0.73;;;;;;;26.64;36.46;92994.91;5049663;28;20045;-81
2021/08/07 09:15:31;;;;;;;1.75;0.90;;;;;;;26.65;35.58;92999.88;5049140;28;20049;-81
2021/08/07 09:18:16;;;;;;;3.60;0.88;;;;;;;26.76;34.84;92991.63;5049460;28;20052;-81
2021/08/07 09:20:45;;;;;;;1.38;0.60;;;;;;;26.20;35.91;92997.66;5041591;28;20045;-82
2021/08/07 09:23:13;;;;;;;2.83;0.90;;;;;;;25.96;36.74;92993.69;5029405;28;20049;-81
2021/08/07 09:25:48;;;;;;;2.08;0.93;;;;;;;25.07;36.90;92996.25;5029225;28;20060;-81
2021/08/07 09:28:15;;;;;;;1.30;0.70;;;;;;;25.67;36.75;93001.13;5029638;28;20049;-81
2021/08/07 09:30:42;;;;;;;1.42;0.65;;;;;;;25.54;35.97;92984.41;5029388;28;20049;-81
2021/08/07 09:33:12;;;;;;;2.63;0.93;;;;;;;25.12;36.94;92991.94;5029504;28;20045;-80
2021/08/07 09:35:40;;;;;;;1.60;0.70;;;;;;;25.65;36.50;93005.16;5049645;28;20045;-81
2021/08/07 09:38:19;;;;;;;1.67;0.70;;;;;;;25.44;35.58;93001.25;5049122;28;20053;-81
2021/08/07 09:40:54;;;;;;;1.42;0.77;;;;;;;25.92;36.09;92990.88;5049201;28;20049;-82
2021/08/07 09:43:23;;;;;;;1.35;0.70;;;;;;;25.94;35.34;92988.72;5049246;28;20057;-81
2021/08/07 09:46:07;;;;;;;1.80;0.80;;;;;;;25.86;36.14;92987.66;5048706;28;20049;-81
2021/08/07 09:48:37;;;;;;;3.83;0.90;;;;;;;25.74;36.13;92982.25;5048865;28;20443;-81
2021/08/07 09:51:19;;;;;;;1.60;0.88;;;;;;;25.81;35.80;92974.66;5049335;28;20049;-81
2021/08/07 09:53:46;;;;;;;1.52;0.80;;;;;;;26.84;35.89;92992.66;5049852;28;20053;-81
2021/08/07 09:56:15;;;;;;;1.90;1.00;;;;;;;27.67;34.58;92998.41;5053508;28;20118;-81
2021/08/07 09:58:42;;;;;;;1.30;0.63;;;;;;;27.13;34.50;92993.78;5053281;28;20045;-82
2021/08/07 10:01:27;;;;;;;1.85;0.75;;;;;;;26.95;34.46;92991.25;5053040;28;20416;-82
2021/08/07 10:04:04;;;;;;;1.25;0.60;;;;;;;27.43;33.62;92996.38;5052986;28;20052;-81
2021/08/07 10:06:33;;;;;;;1.52;0.68;;;;;;;27.03;34.39;92987.03;5053199;28;20131;-82
2021/08/07 10:09:00;;;;;;;1.30;0.70;;;;;;;26.64;34.33;92987.78;5052864;28;20048;-82
2021/08/07 10:11:29;;;;;;;2.67;0.88;;;;;;;26.26;34.42;92970.09;5052946;28;20041;-81
2021/08/07 10:13:56;;;;;;;1.30;0.70;;;;;;;27.04;35.02;92983.28;5053417;28;20072;-82
2021/08/07 10:16:23;;;;;;;1.80;0.70;;;;;;;27.46;33.62;92993.84;5053335;28;20049;-82
2021/08/07 10:18:51;;;;;;;1.50;0.73;;;;;;;27.44;33.87;92985.50;5053255;28;20412;-82
2021/08/07 10:21:19;;;;;;;1.65;0.95;;;;;;;26.63;34.25;92974.94;5039928;28;20081;-82
2021/08/07 10:23:46;;;;;;;3.40;0.88;;;;;;;26.87;34.61;92973.56;5032915;28;20057;-81
2021/08/07 10:26:19;;;;;;;1.75;0.70;;;;;;;27.61;34.07;92976.72;5032845;28;20052;-82
2021/08/07 10:28:49;;;;;;;2.78;0.95;;;;;;;27.33;33.58;92974.59;5032913;28;20049;-80
2021/08/07 10:31:22;;;;;;;2.85;0.70;;;;;;;27.03;34.60;92952.75;5032653;28;20053;-80
2021/08/07 10:33:51;;;;;;;1.60;0.80;;;;;;;27.00;34.65;92966.56;5038072;28;20492;-80
2021/08/07 10:36:18;;;;;;;1.70;0.85;;;;;;;27.31;34.56;92957.53;5052561;28;20099;-80
2021/08/07 10:38:46;;;;;;;1.80;0.90;;;;;;;26.49;35.25;92959.34;5052798;28;20102;-79
2021/08/07 10:41:13;;;;;;;1.63;0.82;;;;;;;26.71;35.34;92962.81;5046134;28;20412;-80
2021/08/07 10:43:41;;;;;;;2.08;0.77;;;;;;;26.95;33.83;92973.56;5049583;28;20056;-79
2021/08/07 10:46:11;;;;;;;1.42;0.70;;;;;;;27.06;33.72;92967.91;5052258;28;20443;-81
2021/08/07 10:48:42;;;;;;;2.63;0.88;;;;;;;27.45;33.63;92967.81;5051952;28;20103;-81
2021/08/07 10:51:38;;;;;;;2.75;0.90;;;;;;;27.77;33.48;92957.63;5052115;28;20408;-80
2021/08/07 10:54:07;;;;;;;1.42;0.80;;;;;;;28.16;33.69;92957.44;5052009;28;20060;-81
2021/08/07 10:56:40;;;;;;;3.58;1.00;;;;;;;28.80;32.34;92949.25;5052295;28;20060;-82
2021/08/07 10:59:19;;;;;;;4.88;1.05;;;;;;;29.45;32.23;92940.59;5051616;28;20049;-81
2021/08/07 11:01:48;;;;;;;4.75;1.17;;;;;;;30.05;30.92;92939.13;5052143;28;20486;-81
2021/08/07 11:04:27;;;;;;;3.47;0.75;;;;;;;30.61;30.42;92934.03;5052022;28;20053;-82
2021/08/07 11:07:05;;;;;;;1.40;0.70;;;;;;;30.20;29.57;92927.03;5051033;28;20557;-83
2021/08/07 11:09:36;;;;;;;1.50;0.60;;;;;;;28.48;31.26;92936.59;5051760;28;20507;-82
2021/08/07 11:12:19;;;;;;;2.08;0.60;;;;;;;28.99;31.15;92926.78;5051549;28;20095;-82
2021/08/07 11:14:51;;;;;;;2.05;1.00;;;;;;;28.27;31.84;92942.75;5050111;28;20123;-82
2021/08/07 11:17:38;;;;;;;1.52;0.70;;;;;;;28.51;30.84;92914.78;5051529;28;20110;-81
2021/08/07 11:20:11;;;;;;;1.95;0.82;;;;;;;28.53;30.35;92941.66;5049072;28;20049;-82
2021/08/07 11:23:12;;;;;;;1.52;0.68;;;;;;;27.76;31.20;92940.25;5031786;28;20052;-83
2021/08/07 11:25:56;;;;;;;1.38;0.70;;;;;;;27.90;31.41;92933.94;5031369;28;20049;-82
2021/08/07 11:28:23;;;;;;;1.67;0.80;;;;;;;28.55;30.57;92933.38;5031593;28;20046;-83
2021/08/07 11:31:12;;;;;;;1.73;0.70;;;;;;;28.52;31.30;92926.91;5031384;28;20045;-83
2021/08/07 11:33:40;;;;;;;1.58;0.68;;;;;;;29.11;29.36;92923.34;5031565;28;20052;-83
2021/08/07 11:36:13;;;;;;;1.83;0.70;;;;;;;28.79;29.54;92919.41;5031587;28;20083;-83
2021/08/07 11:38:59;;;;;;;4.15;0.82;;;;;;;29.47;30.03;92897.88;5031635;28;20060;-83
2021/08/07 11:41:37;;;;;;;1.10;0.50;;;;;;;29.82;28.90;92899.97;5030877;28;20046;-83